sensor_id;sensor_type;location;lat;lon;timestamp;P1;durP1;ratioP1;P2;durP2;ratioP2
38853;SDS011;24606;51.992;4.198;2023-09-07T00:04:31;5.22;;;2.35;;
38853;SDS011;24606;51.992;4.198;2023-09-07T00:09:33;3.05;;;2.42;;
38853;SDS011;24606;51.992;4.198;2023-09-07T00:14:36;3.00;;;2.10;;
38853;SDS011;24606;51.992;4.198;2023-09-07T00:19:38;4.90;;;2.42;;
38853;SDS011;24606;51.992;4.198;2023-09-07T00:24:40;4.45;;;2.58;;
38853;SDS011;24606;51.992;4.198;2023-09-07T00:29:43;4.25;;;2.30;;
38853;SDS011;24606;51.992;4.198;2023-09-07T00:34:45;4.80;;;2.78;;
38853;SDS011;24606;51.992;4.198;2023-09-07T00:39:47;3.33;;;2.13;;
38853;SDS011;24606;51.992;4.198;2023-09-07T00:44:50;2.45;;;2.10;;
38853;SDS011;24606;51.992;4.198;2023-09-07T00:49:52;2.90;;;2.50;;
38853;SDS011;24606;51.992;4.198;2023-09-07T00:54:55;2.42;;;2.10;;
38853;SDS011;24606;51.992;4.198;2023-09-07T00:59:58;5.50;;;2.17;;
38853;SDS011;24606;51.992;4.198;2023-09-07T01:05:01;4.18;;;2.28;;
38853;SDS011;24606;51.992;4.198;2023-09-07T01:10:04;3.75;;;2.38;;
38853;SDS011;24606;51.992;4.198;2023-09-07T01:15:09;2.63;;;1.90;;
38853;SDS011;24606;51.992;4.198;2023-09-07T01:20:12;2.50;;;2.28;;
38853;SDS011;24606;51.992;4.198;2023-09-07T01:25:18;2.95;;;2.42;;
38853;SDS011;24606;51.992;4.198;2023-09-07T01:30:20;2.58;;;2.15;;
38853;SDS011;24606;51.992;4.198;2023-09-07T01:35:22;2.10;;;1.90;;
38853;SDS011;24606;51.992;4.198;2023-09-07T01:40:27;2.58;;;1.80;;
38853;SDS011;24606;51.992;4.198;2023-09-07T01:45:29;2.80;;;2.20;;
38853;SDS011;24606;51.992;4.198;2023-09-07T01:50:31;2.75;;;2.20;;
38853;SDS011;24606;51.992;4.198;2023-09-07T01:55:34;4.07;;;2.05;;
38853;SDS011;24606;51.992;4.198;2023-09-07T02:00:36;2.47;;;1.83;;
38853;SDS011;24606;51.992;4.198;2023-09-07T02:05:38;2.88;;;2.45;;
38853;SDS011;24606;51.992;4.198;2023-09-07T02:10:42;4.50;;;2.15;;
38853;SDS011;24606;51.992;4.198;2023-09-07T02:15:43;2.05;;;1.70;;
38853;SDS011;24606;51.992;4.198;2023-09-07T02:20:45;3.85;;;2.05;;
38853;SDS011;24606;51.992;4.198;2023-09-07T02:25:50;2.97;;;2.17;;
38853;SDS011;24606;51.992;4.198;2023-09-07T02:30:51;2.88;;;2.05;;
38853;SDS011;24606;51.992;4.198;2023-09-07T02:35:53;3.17;;;2.03;;
38853;SDS011;24606;51.992;4.198;2023-09-07T02:40:57;1.98;;;1.70;;
38853;SDS011;24606;51.992;4.198;2023-09-07T02:45:59;6.22;;;2.50;;
38853;SDS011;24606;51.992;4.198;2023-09-07T02:51:01;2.15;;;1.95;;
38853;SDS011;24606;51.992;4.198;2023-09-07T02:56:04;2.45;;;2.10;;
38853;SDS011;24606;51.992;4.198;2023-09-07T03:15:28;2.50;;;2.10;;
38853;SDS011;24606;51.992;4.198;2023-09-07T03:20:32;2.30;;;2.10;;
38853;SDS011;24606;51.992;4.198;2023-09-07T03:25:35;2.33;;;2.05;;
38853;SDS011;24606;51.992;4.198;2023-09-07T03:30:38;4.32;;;2.55;;
38853;SDS011;24606;51.992;4.198;2023-09-07T03:35:40;3.47;;;2.33;;
38853;SDS011;24606;51.992;4.198;2023-09-07T03:40:42;2.70;;;2.15;;
38853;SDS011;24606;51.992;4.198;2023-09-07T03:45:45;3.53;;;2.17;;
38853;SDS011;24606;51.992;4.198;2023-09-07T03:50:47;2.40;;;2.17;;
38853;SDS011;24606;51.992;4.198;2023-09-07T03:55:49;2.40;;;2.20;;
38853;SDS011;24606;51.992;4.198;2023-09-07T04:00:52;3.53;;;2.50;;
38853;SDS011;24606;51.992;4.198;2023-09-07T04:05:54;2.22;;;2.00;;
38853;SDS011;24606;51.992;4.198;2023-09-07T04:10:56;4.07;;;2.72;;
38853;SDS011;24606;51.992;4.198;2023-09-07T04:15:59;2.53;;;2.25;;
38853;SDS011;24606;51.992;4.198;2023-09-07T04:21:04;3.45;;;2.35;;
38853;SDS011;24606;51.992;4.198;2023-09-07T04:26:06;2.70;;;2.22;;
38853;SDS011;24606;51.992;4.198;2023-09-07T04:31:10;4.00;;;2.30;;
38853;SDS011;24606;51.992;4.198;2023-09-07T04:36:13;4.32;;;2.72;;
38853;SDS011;24606;51.992;4.198;2023-09-07T04:41:15;2.92;;;2.35;;
38853;SDS011;24606;51.992;4.198;2023-09-07T04:46:20;4.00;;;2.65;;
38853;SDS011;24606;51.992;4.198;2023-09-07T04:51:23;4.28;;;2.63;;
38853;SDS011;24606;51.992;4.198;2023-09-07T04:56:25;4.28;;;2.80;;
38853;SDS011;24606;51.992;4.198;2023-09-07T05:01:30;2.90;;;2.58;;
38853;SDS011;24606;51.992;4.198;2023-09-07T05:06:32;2.50;;;2.25;;
38853;SDS011;24606;51.992;4.198;2023-09-07T05:11:37;3.30;;;2.53;;
38853;SDS011;24606;51.992;4.198;2023-09-07T05:16:40;3.15;;;2.70;;
38853;SDS011;24606;51.992;4.198;2023-09-07T05:21:43;3.88;;;2.70;;
38853;SDS011;24606;51.992;4.198;2023-09-07T05:26:45;6.85;;;3.10;;
38853;SDS011;24606;51.992;4.198;2023-09-07T05:31:48;3.10;;;2.33;;
38853;SDS011;24606;51.992;4.198;2023-09-07T05:36:50;4.90;;;2.90;;
38853;SDS011;24606;51.992;4.198;2023-09-07T05:41:52;4.72;;;2.92;;
38853;SDS011;24606;51.992;4.198;2023-09-07T05:46:55;3.35;;;2.72;;
38853;SDS011;24606;51.992;4.198;2023-09-07T05:51:58;6.25;;;2.85;;
38853;SDS011;24606;51.992;4.198;2023-09-07T05:57:00;5.45;;;2.60;;
38853;SDS011;24606;51.992;4.198;2023-09-07T06:02:03;3.30;;;2.67;;
38853;SDS011;24606;51.992;4.198;2023-09-07T06:07:05;5.60;;;2.67;;
38853;SDS011;24606;51.992;4.198;2023-09-07T06:12:07;4.43;;;2.60;;
38853;SDS011;24606;51.992;4.198;2023-09-07T06:17:10;3.38;;;2.40;;
38853;SDS011;24606;51.992;4.198;2023-09-07T06:22:12;3.85;;;2.50;;
38853;SDS011;24606;51.992;4.198;2023-09-07T06:27:14;5.45;;;3.20;;
38853;SDS011;24606;51.992;4.198;2023-09-07T06:32:17;7.82;;;3.15;;
38853;SDS011;24606;51.992;4.198;2023-09-07T06:37:19;3.88;;;2.67;;
38853;SDS011;24606;51.992;4.198;2023-09-07T06:42:21;5.55;;;2.80;;
38853;SDS011;24606;51.992;4.198;2023-09-07T06:47:24;5.47;;;2.95;;
38853;SDS011;24606;51.992;4.198;2023-09-07T06:52:26;3.45;;;2.65;;
38853;SDS011;24606;51.992;4.198;2023-09-07T06:57:28;4.20;;;2.40;;
38853;SDS011;24606;51.992;4.198;2023-09-07T07:02:31;5.35;;;2.42;;
38853;SDS011;24606;51.992;4.198;2023-09-07T07:07:34;3.65;;;2.80;;
38853;SDS011;24606;51.992;4.198;2023-09-07T07:12:36;4.07;;;2.70;;
38853;SDS011;24606;51.992;4.198;2023-09-07T07:17:39;3.65;;;2.85;;
38853;SDS011;24606;51.992;4.198;2023-09-07T07:22:41;5.50;;;2.50;;
38853;SDS011;24606;51.992;4.198;2023-09-07T07:27:43;6.43;;;2.75;;
38853;SDS011;24606;51.992;4.198;2023-09-07T07:32:46;4.65;;;2.75;;
38853;SDS011;24606;51.992;4.198;2023-09-07T07:37:51;4.20;;;2.70;;
38853;SDS011;24606;51.992;4.198;2023-09-07T07:42:52;3.83;;;2.90;;
38853;SDS011;24606;51.992;4.198;2023-09-07T07:47:56;3.30;;;2.90;;
38853;SDS011;24606;51.992;4.198;2023-09-07T07:52:58;4.20;;;2.70;;
38853;SDS011;24606;51.992;4.198;2023-09-07T07:57:59;4.20;;;2.60;;
38853;SDS011;24606;51.992;4.198;2023-09-07T08:03:03;3.25;;;2.63;;
38853;SDS011;24606;51.992;4.198;2023-09-07T08:08:07;4.35;;;2.47;;
38853;SDS011;24606;51.992;4.198;2023-09-07T08:13:09;20.95;;;7.80;;
38853;SDS011;24606;51.992;4.198;2023-09-07T08:18:12;32.83;;;12.02;;
38853;SDS011;24606;51.992;4.198;2023-09-07T08:23:14;39.42;;;14.52;;
38853;SDS011;24606;51.992;4.198;2023-09-07T08:28:15;36.10;;;13.15;;
38853;SDS011;24606;51.992;4.198;2023-09-07T08:33:19;34.60;;;12.32;;
38853;SDS011;24606;51.992;4.198;2023-09-07T08:38:24;30.67;;;11.85;;
38853;SDS011;24606;51.992;4.198;2023-09-07T08:43:27;23.10;;;9.27;;
38853;SDS011;24606;51.992;4.198;2023-09-07T08:48:33;22.52;;;8.82;;
38853;SDS011;24606;51.992;4.198;2023-09-07T08:53:36;18.80;;;7.50;;
38853;SDS011;24606;51.992;4.198;2023-09-07T08:58:40;16.88;;;7.22;;
38853;SDS011;24606;51.992;4.198;2023-09-07T09:03:43;12.88;;;6.28;;
38853;SDS011;24606;51.992;4.198;2023-09-07T09:08:47;13.77;;;5.95;;
38853;SDS011;24606;51.992;4.198;2023-09-07T09:13:50;12.63;;;5.88;;
38853;SDS011;24606;51.992;4.198;2023-09-07T09:18:55;10.13;;;5.40;;
38853;SDS011;24606;51.992;4.198;2023-09-07T09:23:58;10.05;;;4.22;;
38853;SDS011;24606;51.992;4.198;2023-09-07T09:29:00;9.20;;;4.60;;
38853;SDS011;24606;51.992;4.198;2023-09-07T09:34:03;6.93;;;4.32;;
38853;SDS011;24606;51.992;4.198;2023-09-07T09:39:05;7.55;;;4.15;;
38853;SDS011;24606;51.992;4.198;2023-09-07T09:44:07;5.65;;;3.53;;
38853;SDS011;24606;51.992;4.198;2023-09-07T09:49:11;5.60;;;3.58;;
38853;SDS011;24606;51.992;4.198;2023-09-07T09:54:14;6.18;;;3.60;;
38853;SDS011;24606;51.992;4.198;2023-09-07T09:59:17;9.48;;;4.45;;
38853;SDS011;24606;51.992;4.198;2023-09-07T10:04:21;4.80;;;3.50;;
38853;SDS011;24606;51.992;4.198;2023-09-07T10:09:24;7.35;;;3.60;;
38853;SDS011;24606;51.992;4.198;2023-09-07T10:14:37;6.50;;;3.33;;
38853;SDS011;24606;51.992;4.198;2023-09-07T10:19:41;12.40;;;3.53;;
38853;SDS011;24606;51.992;4.198;2023-09-07T10:24:56;6.00;;;3.25;;
38853;SDS011;24606;51.992;4.198;2023-09-07T10:29:59;4.75;;;2.92;;
38853;SDS011;24606;51.992;4.198;2023-09-07T10:35:02;9.55;;;4.65;;
38853;SDS011;24606;51.992;4.198;2023-09-07T10:40:18;8.35;;;4.03;;
38853;SDS011;24606;51.992;4.198;2023-09-07T10:45:21;6.78;;;3.67;;
38853;SDS011;24606;51.992;4.198;2023-09-07T10:50:24;6.63;;;3.45;;
38853;SDS011;24606;51.992;4.198;2023-09-07T10:55:26;3.83;;;2.88;;
38853;SDS011;24606;51.992;4.198;2023-09-07T11:00:28;12.55;;;3.20;;
38853;SDS011;24606;51.992;4.198;2023-09-07T11:05:32;5.25;;;3.30;;
38853;SDS011;24606;51.992;4.198;2023-09-07T11:10:36;7.32;;;3.10;;
38853;SDS011;24606;51.992;4.198;2023-09-07T11:15:38;4.32;;;2.72;;
38853;SDS011;24606;51.992;4.198;2023-09-07T11:20:41;9.32;;;3.53;;
38853;SDS011;24606;51.992;4.198;2023-09-07T11:25:43;6.93;;;3.10;;
38853;SDS011;24606;51.992;4.198;2023-09-07T11:30:50;5.07;;;2.10;;
38853;SDS011;24606;51.992;4.198;2023-09-07T11:35:54;3.25;;;2.50;;
38853;SDS011;24606;51.992;4.198;2023-09-07T11:40:56;5.55;;;2.95;;
38853;SDS011;24606;51.992;4.198;2023-09-07T11:45:58;5.40;;;3.05;;
38853;SDS011;24606;51.992;4.198;2023-09-07T11:51:02;5.68;;;2.40;;
38853;SDS011;24606;51.992;4.198;2023-09-07T11:56:04;7.47;;;2.63;;
38853;SDS011;24606;51.992;4.198;2023-09-07T12:01:06;6.15;;;2.90;;
38853;SDS011;24606;51.992;4.198;2023-09-07T12:06:10;6.63;;;2.83;;
38853;SDS011;24606;51.992;4.198;2023-09-07T12:11:12;5.47;;;2.50;;
38853;SDS011;24606;51.992;4.198;2023-09-07T12:16:14;2.85;;;2.42;;
38853;SDS011;24606;51.992;4.198;2023-09-07T12:21:18;4.97;;;2.45;;
38853;SDS011;24606;51.992;4.198;2023-09-07T12:26:21;9.45;;;3.10;;
38853;SDS011;24606;51.992;4.198;2023-09-07T12:31:22;5.47;;;2.80;;
38853;SDS011;24606;51.992;4.198;2023-09-07T12:36:26;10.27;;;3.10;;
38853;SDS011;24606;51.992;4.198;2023-09-07T12:41:30;5.15;;;2.95;;
38853;SDS011;24606;51.992;4.198;2023-09-07T12:46:31;4.05;;;2.53;;
38853;SDS011;24606;51.992;4.198;2023-09-07T12:51:35;4.88;;;2.60;;
38853;SDS011;24606;51.992;4.198;2023-09-07T12:56:37;7.53;;;2.80;;
38853;SDS011;24606;51.992;4.198;2023-09-07T13:01:39;4.05;;;2.60;;
38853;SDS011;24606;51.992;4.198;2023-09-07T13:06:42;8.98;;;2.78;;
38853;SDS011;24606;51.992;4.198;2023-09-07T13:11:43;4.03;;;2.80;;
38853;SDS011;24606;51.992;4.198;2023-09-07T13:16:45;3.20;;;2.30;;
38853;SDS011;24606;51.992;4.198;2023-09-07T13:21:49;3.65;;;2.55;;
38853;SDS011;24606;51.992;4.198;2023-09-07T13:26:51;3.83;;;2.35;;
38853;SDS011;24606;51.992;4.198;2023-09-07T13:31:53;3.17;;;2.25;;
38853;SDS011;24606;51.992;4.198;2023-09-07T13:36:56;5.75;;;2.83;;
38853;SDS011;24606;51.992;4.198;2023-09-07T13:41:58;7.28;;;2.40;;
38853;SDS011;24606;51.992;4.198;2023-09-07T13:47:00;9.70;;;2.45;;
38853;SDS011;24606;51.992;4.198;2023-09-07T13:52:03;3.65;;;2.45;;
38853;SDS011;24606;51.992;4.198;2023-09-07T13:57:05;7.93;;;2.83;;
38853;SDS011;24606;51.992;4.198;2023-09-07T14:02:07;2.83;;;2.30;;
38853;SDS011;24606;51.992;4.198;2023-09-07T14:07:10;4.05;;;2.20;;
38853;SDS011;24606;51.992;4.198;2023-09-07T14:12:12;2.75;;;1.98;;
38853;SDS011;24606;51.992;4.198;2023-09-07T14:17:16;3.05;;;2.25;;
38853;SDS011;24606;51.992;4.198;2023-09-07T14:22:19;2.63;;;1.90;;
38853;SDS011;24606;51.992;4.198;2023-09-07T14:27:22;4.68;;;2.67;;
38853;SDS011;24606;51.992;4.198;2023-09-07T14:32:24;2.15;;;1.67;;
38853;SDS011;24606;51.992;4.198;2023-09-07T14:37:27;1.90;;;1.70;;
38853;SDS011;24606;51.992;4.198;2023-09-07T14:42:29;2.95;;;1.90;;
38853;SDS011;24606;51.992;4.198;2023-09-07T14:47:31;3.28;;;2.20;;
38853;SDS011;24606;51.992;4.198;2023-09-07T14:52:35;3.35;;;2.10;;
38853;SDS011;24606;51.992;4.198;2023-09-07T14:57:41;4.32;;;2.60;;
38853;SDS011;24606;51.992;4.198;2023-09-07T15:02:42;2.28;;;1.63;;
38853;SDS011;24606;51.992;4.198;2023-09-07T15:07:46;5.18;;;3.85;;
38853;SDS011;24606;51.992;4.198;2023-09-07T15:12:47;7.85;;;3.53;;
38853;SDS011;24606;51.992;4.198;2023-09-07T15:17:49;5.38;;;1.90;;
38853;SDS011;24606;51.992;4.198;2023-09-07T15:22:52;8.38;;;4.43;;
38853;SDS011;24606;51.992;4.198;2023-09-07T15:27:54;6.32;;;5.40;;
38853;SDS011;24606;51.992;4.198;2023-09-07T15:32:56;9.80;;;8.13;;
38853;SDS011;24606;51.992;4.198;2023-09-07T15:37:59;3.85;;;3.00;;
38853;SDS011;24606;51.992;4.198;2023-09-07T15:43:02;10.40;;;4.10;;
38853;SDS011;24606;51.992;4.198;2023-09-07T15:48:04;2.25;;;2.05;;
38853;SDS011;24606;51.992;4.198;2023-09-07T15:53:08;2.70;;;2.50;;
38853;SDS011;24606;51.992;4.198;2023-09-07T15:58:09;10.93;;;2.80;;
38853;SDS011;24606;51.992;4.198;2023-09-07T16:03:12;7.28;;;2.60;;
38853;SDS011;24606;51.992;4.198;2023-09-07T16:08:16;2.17;;;1.92;;
38853;SDS011;24606;51.992;4.198;2023-09-07T16:13:17;2.72;;;2.08;;
38853;SDS011;24606;51.992;4.198;2023-09-07T16:18:19;2.35;;;2.13;;
38853;SDS011;24606;51.992;4.198;2023-09-07T16:23:22;4.25;;;2.20;;
38853;SDS011;24606;51.992;4.198;2023-09-07T16:28:24;3.85;;;2.40;;
38853;SDS011;24606;51.992;4.198;2023-09-07T16:33:26;4.15;;;2.40;;
38853;SDS011;24606;51.992;4.198;2023-09-07T16:38:29;5.13;;;2.53;;
38853;SDS011;24606;51.992;4.198;2023-09-07T16:43:31;3.75;;;2.10;;
38853;SDS011;24606;51.992;4.198;2023-09-07T16:48:33;8.73;;;3.58;;
38853;SDS011;24606;51.992;4.198;2023-09-07T16:53:36;4.97;;;3.53;;
38853;SDS011;24606;51.992;4.198;2023-09-07T16:58:41;2.53;;;1.98;;
38853;SDS011;24606;51.992;4.198;2023-09-07T17:03:43;2.22;;;1.95;;
38853;SDS011;24606;51.992;4.198;2023-09-07T17:08:46;2.47;;;2.03;;
38853;SDS011;24606;51.992;4.198;2023-09-07T17:13:47;1.65;;;1.52;;
38853;SDS011;24606;51.992;4.198;2023-09-07T17:18:49;2.28;;;1.63;;
38853;SDS011;24606;51.992;4.198;2023-09-07T17:23:52;1.85;;;1.60;;
38853;SDS011;24606;51.992;4.198;2023-09-07T17:28:54;3.88;;;1.88;;
38853;SDS011;24606;51.992;4.198;2023-09-07T17:33:56;2.10;;;1.50;;
38853;SDS011;24606;51.992;4.198;2023-09-07T17:38:59;2.58;;;2.20;;
38853;SDS011;24606;51.992;4.198;2023-09-07T17:44:01;4.03;;;1.92;;
38853;SDS011;24606;51.992;4.198;2023-09-07T17:49:03;2.78;;;2.15;;
38853;SDS011;24606;51.992;4.198;2023-09-07T17:54:07;2.05;;;1.58;;
38853;SDS011;24606;51.992;4.198;2023-09-07T17:59:08;2.28;;;1.55;;
38853;SDS011;24606;51.992;4.198;2023-09-07T18:04:10;2.38;;;1.65;;
38853;SDS011;24606;51.992;4.198;2023-09-07T18:09:14;2.35;;;1.70;;
38853;SDS011;24606;51.992;4.198;2023-09-07T18:14:15;1.67;;;1.58;;
38853;SDS011;24606;51.992;4.198;2023-09-07T18:19:17;2.28;;;1.60;;
38853;SDS011;24606;51.992;4.198;2023-09-07T18:24:20;5.93;;;2.40;;
38853;SDS011;24606;51.992;4.198;2023-09-07T18:29:23;2.22;;;1.67;;
38853;SDS011;24606;51.992;4.198;2023-09-07T18:34:24;2.28;;;1.60;;
38853;SDS011;24606;51.992;4.198;2023-09-07T18:39:28;2.00;;;1.85;;
38853;SDS011;24606;51.992;4.198;2023-09-07T18:44:29;3.33;;;1.80;;
38853;SDS011;24606;51.992;4.198;2023-09-07T18:49:31;2.10;;;1.63;;
38853;SDS011;24606;51.992;4.198;2023-09-07T18:54:34;1.90;;;1.50;;
38853;SDS011;24606;51.992;4.198;2023-09-07T18:59:37;2.40;;;1.65;;
38853;SDS011;24606;51.992;4.198;2023-09-07T19:04:39;2.15;;;1.70;;
38853;SDS011;24606;51.992;4.198;2023-09-07T19:09:42;3.75;;;1.75;;
38853;SDS011;24606;51.992;4.198;2023-09-07T19:14:44;3.03;;;2.15;;
38853;SDS011;24606;51.992;4.198;2023-09-07T19:19:46;2.47;;;1.77;;
38853;SDS011;24606;51.992;4.198;2023-09-07T19:24:50;1.98;;;1.58;;
38853;SDS011;24606;51.992;4.198;2023-09-07T19:29:53;3.38;;;1.90;;
38853;SDS011;24606;51.992;4.198;2023-09-07T19:34:56;2.17;;;1.98;;
38853;SDS011;24606;51.992;4.198;2023-09-07T19:39:59;4.35;;;2.30;;
38853;SDS011;24606;51.992;4.198;2023-09-07T19:45:01;2.72;;;1.83;;
38853;SDS011;24606;51.992;4.198;2023-09-07T19:50:05;2.70;;;2.45;;
38853;SDS011;24606;51.992;4.198;2023-09-07T19:55:10;2.42;;;2.20;;
38853;SDS011;24606;51.992;4.198;2023-09-07T20:00:14;5.55;;;2.55;;
38853;SDS011;24606;51.992;4.198;2023-09-07T20:05:15;4.03;;;2.22;;
38853;SDS011;24606;51.992;4.198;2023-09-07T20:10:19;8.68;;;3.30;;
38853;SDS011;24606;51.992;4.198;2023-09-07T20:15:23;7.18;;;3.00;;
38853;SDS011;24606;51.992;4.198;2023-09-07T20:20:25;7.07;;;3.08;;
38853;SDS011;24606;51.992;4.198;2023-09-07T20:25:29;8.32;;;3.40;;
38853;SDS011;24606;51.992;4.198;2023-09-07T20:30:30;13.18;;;3.45;;
38853;SDS011;24606;51.992;4.198;2023-09-07T20:35:34;10.65;;;4.20;;
38853;SDS011;24606;51.992;4.198;2023-09-07T20:40:37;11.45;;;4.20;;
38853;SDS011;24606;51.992;4.198;2023-09-07T20:45:39;14.18;;;4.40;;
38853;SDS011;24606;51.992;4.198;2023-09-07T20:50:42;12.40;;;4.32;;
38853;SDS011;24606;51.992;4.198;2023-09-07T20:55:45;16.35;;;4.40;;
38853;SDS011;24606;51.992;4.198;2023-09-07T21:00:47;18.65;;;4.57;;
38853;SDS011;24606;51.992;4.198;2023-09-07T21:05:49;9.82;;;4.53;;
38853;SDS011;24606;51.992;4.198;2023-09-07T21:10:53;7.90;;;3.33;;
38853;SDS011;24606;51.992;4.198;2023-09-07T21:15:54;9.35;;;3.95;;
38853;SDS011;24606;51.992;4.198;2023-09-07T21:20:56;8.43;;;3.72;;
38853;SDS011;24606;51.992;4.198;2023-09-07T21:26:00;7.80;;;3.75;;
38853;SDS011;24606;51.992;4.198;2023-09-07T21:31:01;9.25;;;3.92;;
38853;SDS011;24606;51.992;4.198;2023-09-07T21:36:03;12.65;;;3.33;;
38853;SDS011;24606;51.992;4.198;2023-09-07T21:41:07;5.82;;;3.40;;
38853;SDS011;24606;51.992;4.198;2023-09-07T21:46:08;7.07;;;3.75;;
38853;SDS011;24606;51.992;4.198;2023-09-07T21:51:10;5.40;;;3.10;;
38853;SDS011;24606;51.992;4.198;2023-09-07T21:56:13;7.97;;;3.15;;
38853;SDS011;24606;51.992;4.198;2023-09-07T22:01:15;5.32;;;3.00;;
38853;SDS011;24606;51.992;4.198;2023-09-07T22:06:17;8.30;;;3.03;;
38853;SDS011;24606;51.992;4.198;2023-09-07T22:11:20;8.57;;;3.28;;
38853;SDS011;24606;51.992;4.198;2023-09-07T22:16:22;7.40;;;3.40;;
38853;SDS011;24606;51.992;4.198;2023-09-07T22:21:24;4.43;;;3.33;;
38853;SDS011;24606;51.992;4.198;2023-09-07T22:26:27;3.92;;;3.08;;
38853;SDS011;24606;51.992;4.198;2023-09-07T22:31:29;4.47;;;2.80;;
38853;SDS011;24606;51.992;4.198;2023-09-07T22:36:31;4.88;;;3.20;;
38853;SDS011;24606;51.992;4.198;2023-09-07T22:41:34;4.20;;;3.10;;
38853;SDS011;24606;51.992;4.198;2023-09-07T22:46:36;4.50;;;3.30;;
38853;SDS011;24606;51.992;4.198;2023-09-07T22:51:38;4.45;;;3.42;;
38853;SDS011;24606;51.992;4.198;2023-09-07T22:56:41;4.55;;;3.40;;
38853;SDS011;24606;51.992;4.198;2023-09-07T23:01:43;6.82;;;3.60;;
38853;SDS011;24606;51.992;4.198;2023-09-07T23:06:44;4.40;;;3.20;;
38853;SDS011;24606;51.992;4.198;2023-09-07T23:11:48;6.57;;;2.97;;
38853;SDS011;24606;51.992;4.198;2023-09-07T23:16:50;3.67;;;3.17;;
38853;SDS011;24606;51.992;4.198;2023-09-07T23:21:52;5.72;;;3.78;;
38853;SDS011;24606;51.992;4.198;2023-09-07T23:26:55;3.75;;;3.25;;
38853;SDS011;24606;51.992;4.198;2023-09-07T23:31:57;5.05;;;3.08;;
38853;SDS011;24606;51.992;4.198;2023-09-07T23:36:59;5.53;;;3.78;;
38853;SDS011;24606;51.992;4.198;2023-09-07T23:42:02;7.45;;;3.22;;
38853;SDS011;24606;51.992;4.198;2023-09-07T23:47:05;6.72;;;3.83;;
38853;SDS011;24606;51.992;4.198;2023-09-07T23:52:07;5.72;;;3.45;;
38853;SDS011;24606;51.992;4.198;2023-09-07T23:57:10;3.97;;;3.58;;
